createdAt,value
2022-09-30T00:00:32.260Z,0
2022-09-30T00:05:33.711Z,0.88715
2022-09-30T00:10:35.299Z,0
2022-09-30T00:15:37.224Z,0
2022-09-30T00:20:38.698Z,0
2022-09-30T00:25:40.385Z,0
2022-09-30T00:30:41.918Z,0
2022-09-30T00:35:43.681Z,0
2022-09-30T00:40:45.437Z,0
2022-09-30T00:45:47.279Z,0
2022-09-30T00:50:49.134Z,0
2022-09-30T00:55:50.975Z,0
2022-09-30T01:00:52.809Z,0
2022-09-30T01:05:54.640Z,0
2022-09-30T01:10:56.228Z,0.88715
2022-09-30T01:15:58.252Z,0.88715
2022-09-30T01:20:59.871Z,0.88715
2022-09-30T01:26:01.406Z,0
2022-09-30T01:31:02.953Z,0
2022-09-30T01:36:04.577Z,0
2022-09-30T01:41:06.032Z,0
2022-09-30T01:46:07.904Z,0
2022-09-30T01:51:09.353Z,0
2022-09-30T01:56:10.847Z,0
2022-09-30T02:01:12.563Z,0.88715
2022-09-30T02:06:14.296Z,0
2022-09-30T02:11:16.019Z,0
2022-09-30T02:16:18.154Z,0
2022-09-30T02:21:19.928Z,0
2022-09-30T02:26:21.681Z,0
2022-09-30T02:31:23.482Z,0
2022-09-30T02:36:25.272Z,0
2022-09-30T02:41:26.994Z,0
2022-09-30T02:46:28.991Z,0
2022-09-30T02:51:30.806Z,0
2022-09-30T02:56:32.553Z,0
2022-09-30T03:01:34.491Z,0
2022-09-30T03:06:36.290Z,0
2022-09-30T03:11:38.044Z,0.88715
2022-09-30T03:16:39.882Z,0.88715
2022-09-30T03:21:41.646Z,0.88715
2022-09-30T03:26:43.353Z,0
2022-09-30T03:31:45.190Z,1.3463
2022-09-30T03:36:47.019Z,1.6592
2022-09-30T03:41:48.790Z,2.84435
2022-09-30T03:46:50.936Z,8.4467
2022-09-30T03:51:52.721Z,18.4793
2022-09-30T03:56:54.599Z,31.38895
2022-09-30T04:01:56.341Z,50.9008
2022-09-30T04:06:58.012Z,73.71375
2022-09-30T04:11:59.791Z,102.76
2022-09-30T04:17:01.678Z,130.6444
2022-09-30T04:22:03.462Z,155.41215
2022-09-30T04:27:05.195Z,178.8336
2022-09-30T04:32:07.093Z,205.1321
2022-09-30T04:37:10.913Z,224.51465
2022-09-30T04:42:12.927Z,244.81945
2022-09-30T04:47:14.684Z,267.68755
2022-09-30T04:52:16.450Z,283.71385
2022-09-30T04:57:18.174Z,320.67245
2022-09-30T05:02:19.908Z,372.69895
2022-09-30T05:07:21.615Z,395.25515
2022-09-30T05:12:23.384Z,407.52015
2022-09-30T05:17:25.337Z,434.9995
2022-09-30T05:22:26.985Z,454.9544
2022-09-30T05:27:28.683Z,483.4663
2022-09-30T05:32:30.471Z,500.54415
2022-09-30T05:37:32.225Z,528.8716
2022-09-30T05:42:33.978Z,540.08505
2022-09-30T05:47:35.950Z,557.34735
2022-09-30T05:52:37.621Z,583.90445
2022-09-30T05:57:39.445Z,595.91085
2022-09-30T06:02:41.377Z,612.0113
2022-09-30T06:07:43.246Z,622.3025
2022-09-30T06:12:45.000Z,637.18595
2022-09-30T06:17:46.959Z,655.0016
2022-09-30T06:22:48.722Z,667.7458
2022-09-30T06:27:50.560Z,683.23775
2022-09-30T06:32:52.391Z,695.98195
2022-09-30T06:37:54.099Z,696.73875
2022-09-30T06:42:55.866Z,727.70365
2022-09-30T06:48:00.196Z,731.3375
2022-09-30T06:53:02.359Z,734.84205
2022-09-30T06:58:04.067Z,748.7481
2022-09-30T07:03:05.998Z,763.4471
2022-09-30T07:08:07.875Z,759.50135
2022-09-30T07:13:09.337Z,784.7863
2022-09-30T07:18:11.250Z,787.6272
2022-09-30T07:23:12.815Z,800.31625
2022-09-30T07:28:14.353Z,829.1609
2022-09-30T07:33:16.127Z,828.88515
2022-09-30T07:38:17.647Z,836.50275
2022-09-30T07:43:19.265Z,832.87075
2022-09-30T07:48:20.978Z,869.0554
2022-09-30T07:53:22.480Z,870.7896
2022-09-30T07:58:24.006Z,891.7599
2022-09-30T08:03:25.798Z,908.98605
2022-09-30T08:08:27.415Z,931.9473
2022-09-30T08:13:29.062Z,947.1445
2022-09-30T08:18:30.737Z,953.21235
2022-09-30T08:23:32.408Z,977.151
2022-09-30T08:28:34.093Z,998.26775
2022-09-30T08:33:35.868Z,998.7108
2022-09-30T08:38:37.499Z,1061.1578
2022-09-30T08:43:39.162Z,1063.81425
2022-09-30T08:48:41.140Z,1086.5359
2022-09-30T08:53:42.759Z,1088.08565
2022-09-30T09:03:45.109Z,1147.85905
2022-09-30T09:08:46.777Z,1147.72975
2022-09-30T09:13:48.326Z,1159.0535
2022-09-30T09:18:50.311Z,1193.4488
2022-09-30T09:23:52.023Z,1212.86935
2022-09-30T09:28:53.973Z,1262.33255
2022-09-30T09:33:55.821Z,1321.3853
2022-09-30T09:38:57.581Z,1316.1104
2022-09-30T09:43:59.325Z,1362.80685
2022-09-30T09:49:01.290Z,1397.6072
2022-09-30T09:54:03.036Z,1416.2158
2022-09-30T09:59:04.677Z,1468.79565
2022-09-30T10:04:06.451Z,1462.5072
2022-09-30T10:09:08.302Z,1503.08065
2022-09-30T10:14:09.871Z,1565.1759
2022-09-30T10:19:11.528Z,1561.0267
2022-09-30T10:24:12.969Z,1580.0955
2022-09-30T10:29:14.409Z,1626.3299
2022-09-30T10:34:16.028Z,1659.69265
2022-09-30T10:39:17.641Z,1690.0852
2022-09-30T10:44:19.284Z,1709.7815
2022-09-30T10:49:21.461Z,1744.36125
2022-09-30T10:54:23.042Z,1752.7528
2022-09-30T10:59:24.589Z,1782.51785
2022-09-30T11:04:26.382Z,1775.52775
2022-09-30T11:09:28.135Z,1790.6318
2022-09-30T11:14:29.586Z,1841.82735
2022-09-30T11:19:31.418Z,1888.41165
2022-09-30T11:24:32.933Z,1876.2018
2022-09-30T11:29:34.520Z,1900.21275
2022-09-30T11:34:35.977Z,1928.3729
2022-09-30T11:39:37.428Z,1913.9135
2022-09-30T11:44:38.948Z,1929.4226
2022-09-30T11:49:40.781Z,1927.0609
2022-09-30T11:54:42.381Z,1887.33555
2022-09-30T11:59:43.903Z,1873.48465
2022-09-30T12:04:45.350Z,1901.47935
2022-09-30T12:09:46.991Z,1837.8895
2022-09-30T12:14:48.668Z,1850.28195
2022-09-30T12:19:50.575Z,1828.4274
2022-09-30T12:24:52.035Z,1809.3206
2022-09-30T12:29:53.800Z,1825.25375
2022-09-30T12:34:55.357Z,1791.72555
2022-09-30T12:39:57.010Z,1760.8158
2022-09-30T12:44:58.508Z,1745.08425
2022-09-30T12:50:00.236Z,1736.37895
2022-09-30T12:55:01.787Z,1757.7163
2022-09-30T13:00:03.405Z,1767.17655
2022-09-30T13:05:04.869Z,1734.25685
2022-09-30T13:10:06.632Z,1721.8264
2022-09-30T13:15:12.135Z,1702.66445
2022-09-30T13:20:14.273Z,1611.41265
2022-09-30T13:25:15.692Z,1629.50405
2022-09-30T13:30:17.159Z,1632.67585
2022-09-30T13:35:19.015Z,1656.2076
2022-09-30T13:40:32.735Z,1648.609
2022-09-30T13:45:45.425Z,1646.156
2022-09-30T13:50:47.422Z,1598.39085
2022-09-30T13:55:49.244Z,1558.13115
2022-09-30T14:00:51.051Z,1520.19515
2022-09-30T14:05:52.934Z,1475.15875
2022-09-30T14:10:54.652Z,1420.21905
2022-09-30T14:15:56.476Z,1407.97305
2022-09-30T14:20:58.548Z,1342.2078
2022-09-30T14:26:00.301Z,1255.5844
2022-09-30T14:31:02.080Z,1178.5144
2022-09-30T14:36:03.835Z,1101.49955
2022-09-30T14:41:05.574Z,1011.7595
2022-09-30T14:46:07.350Z,920.1198
2022-09-30T14:51:09.365Z,809.68705
2022-09-30T14:56:10.905Z,703.7914
2022-09-30T15:01:12.611Z,600.8641
2022-09-30T15:06:14.460Z,502.03085
2022-09-30T15:11:16.019Z,400.06195
2022-09-30T15:16:17.554Z,308.7893
2022-09-30T15:21:19.219Z,239.1126
2022-09-30T15:26:20.794Z,181.0544
2022-09-30T15:31:22.648Z,145.2748
2022-09-30T15:36:24.528Z,117.4627
2022-09-30T15:41:26.291Z,96.32695
2022-09-30T15:46:28.130Z,73.6053
2022-09-30T15:51:30.043Z,64.45695
2022-09-30T15:56:32.077Z,49.2046
2022-09-30T16:01:33.953Z,29.19455
2022-09-30T16:06:36.227Z,18.8482
2022-09-30T16:11:38.250Z,8.63115
2022-09-30T16:16:39.966Z,3.3184
2022-09-30T16:21:41.913Z,1.54065
2022-09-30T16:26:43.686Z,0.4148
2022-09-30T16:31:45.340Z,0
2022-09-30T16:36:47.154Z,0.88715
2022-09-30T16:41:48.772Z,0.88715
2022-09-30T16:46:50.400Z,0.88715
2022-09-30T16:51:52.222Z,0
2022-09-30T16:56:56.508Z,0
2022-09-30T17:02:00.593Z,0
2022-09-30T17:07:02.303Z,0
2022-09-30T17:12:04.021Z,0
2022-09-30T17:17:09.759Z,0.88715
2022-09-30T17:22:14.250Z,0
2022-09-30T17:27:15.701Z,0.88715
2022-09-30T17:32:17.239Z,0.88715
2022-09-30T17:37:18.683Z,0
2022-09-30T17:42:20.149Z,0
2022-09-30T17:47:21.706Z,0.88715
2022-09-30T17:52:23.544Z,0.88715
2022-09-30T17:57:25.064Z,0.88715
2022-09-30T18:02:26.614Z,0.88715
2022-09-30T18:07:28.348Z,0
2022-09-30T18:12:29.772Z,0.88715
2022-09-30T18:17:31.212Z,0.88715
2022-09-30T18:22:32.960Z,0
2022-09-30T18:27:34.375Z,0.88715
2022-09-30T18:32:35.816Z,0
2022-09-30T18:37:37.615Z,0
2022-09-30T18:42:39.370Z,0.88715
2022-09-30T18:47:41.141Z,0.88715
2022-09-30T18:52:43.128Z,0
2022-09-30T18:57:44.891Z,0.88715
2022-09-30T19:02:46.596Z,0
2022-09-30T19:07:48.328Z,0
2022-09-30T19:12:50.056Z,0.88715
2022-09-30T19:17:51.779Z,0.88715
2022-09-30T19:22:53.528Z,0.88715
2022-09-30T19:27:55.101Z,0
2022-09-30T19:32:56.527Z,0.88715
2022-09-30T19:38:02.484Z,0
2022-09-30T19:43:04.462Z,0
2022-09-30T19:48:06.204Z,0.88715
2022-09-30T19:53:08.142Z,0
2022-09-30T19:58:09.968Z,0
2022-09-30T20:03:11.751Z,0
2022-09-30T20:08:13.219Z,0
2022-09-30T20:13:14.603Z,0
2022-09-30T20:18:16.050Z,0
2022-09-30T20:23:17.903Z,0
2022-09-30T20:28:19.639Z,0
2022-09-30T20:33:21.240Z,0
2022-09-30T20:38:22.867Z,0
2022-09-30T20:43:24.344Z,0
2022-09-30T20:48:27.890Z,0
2022-09-30T20:53:33.142Z,0
2022-09-30T20:58:34.840Z,0
2022-09-30T21:03:36.595Z,0
2022-09-30T21:08:38.357Z,0
2022-09-30T21:13:40.108Z,0
2022-09-30T21:18:41.936Z,0
2022-09-30T21:23:43.884Z,0
2022-09-30T21:28:49.077Z,0
2022-09-30T21:33:51.283Z,0
2022-09-30T21:38:53.065Z,0
2022-09-30T21:43:54.810Z,0
2022-09-30T21:48:56.570Z,0
2022-09-30T21:53:58.514Z,0
2022-09-30T21:59:00.298Z,0
2022-09-30T22:04:02.026Z,0
2022-09-30T22:09:03.469Z,0
2022-09-30T22:14:05.193Z,0
2022-09-30T22:19:06.920Z,0
2022-09-30T22:24:08.681Z,0
2022-09-30T22:29:10.321Z,0
2022-09-30T22:34:11.960Z,0
2022-09-30T22:39:13.646Z,0
2022-09-30T22:44:15.078Z,0
2022-09-30T22:49:16.729Z,0
2022-09-30T22:54:18.368Z,0
2022-09-30T22:59:19.848Z,0.88715
2022-09-30T23:04:21.578Z,0
2022-09-30T23:09:23.063Z,0
2022-09-30T23:14:24.557Z,0.88715
2022-09-30T23:19:25.999Z,0
2022-09-30T23:24:27.972Z,0
2022-09-30T23:29:29.718Z,0
2022-09-30T23:34:31.330Z,0
2022-09-30T23:39:32.970Z,0
2022-09-30T23:44:34.590Z,0.88715
2022-09-30T23:49:36.311Z,0
2022-09-30T23:54:38.143Z,0
2022-09-30T23:59:39.779Z,0
